Time;durP1;ratioP1;P1;durP2;ratioP2;P2;SDS_P1;SDS_P2;PMS_P1;PMS_P2;Temp;Humidity;BMP_temperature;BMP_pressure;BME280_temperature;BME280_humidity;BME280_pressure;Samples;Min_cycle;Max_cycle;Signal;HPM_P1;HPM_P2
2023/11/02 00:01:54;;;;;;;;;;;;;;;20.99;29.14;97785.38;4939741;29;1486;-78
2023/11/02 00:04:20;;;;;;;;;;;;;;;20.99;28.95;97772.00;4923585;29;1918;-77
2023/11/02 00:06:49;;;;;;;;;;;;;;;20.89;29.29;97777.97;4940335;29;1548;-77
2023/11/02 00:09:33;;;;;;;;;;;;;;;20.96;28.92;97780.59;4920884;29;1419;-78
2023/11/02 00:12:05;;;;;;;;;;;;;;;20.68;29.56;97785.78;4936538;29;1574;-77
2023/11/02 00:14:34;;;;;;;;;;;;;;;20.76;29.68;97787.16;4904381;29;1436;-78
2023/11/02 00:17:00;;;;;;;;;;;;;;;20.81;29.38;97788.66;4920993;29;1626;-78
2023/11/02 00:19:32;;;;;;;;;;;;;;;21.05;29.06;97780.75;4917922;29;1727;-78
2023/11/02 00:21:58;;;;;;;;;;;;;;;20.99;29.21;97782.53;4921080;29;1469;-78
2023/11/02 00:24:26;;;;;;;;;;;;;;;20.92;29.23;97794.81;4923797;29;1908;-77
2023/11/02 00:26:51;;;;;;;;;;;;;;;20.78;29.58;97790.34;4939280;29;1689;-78
2023/11/02 00:29:17;;;;;;;;;;;;;;;20.88;29.11;97788.50;4955693;29;1497;-78
2023/11/02 00:31:42;;;;;;;;;;;;;;;20.81;29.34;97786.63;4955616;29;1501;-77
2023/11/02 00:34:08;;;;;;;;;;;;;;;20.83;29.16;97780.53;4939591;29;1451;-78
2023/11/02 00:36:34;;;;;;;;;;;;;;;21.00;28.99;97778.47;4925698;29;1476;-77
2023/11/02 00:39:00;;;;;;;;;;;;;;;20.96;29.05;97778.56;4959194;29;1575;-78
2023/11/02 00:41:26;;;;;;;;;;;;;;;21.11;28.82;97778.94;4963829;28;1624;-79
2023/11/02 00:43:52;;;;;;;;;;;;;;;20.93;29.39;97772.97;4979675;28;1918;-77
2023/11/02 00:46:17;;;;;;;;;;;;;;;21.02;29.06;97775.97;4964125;28;1607;-78
2023/11/02 00:48:44;;;;;;;;;;;;;;;21.17;29.04;97771.50;4963752;28;1708;-78
2023/11/02 00:51:14;;;;;;;;;;;;;;;21.14;28.87;97766.75;4979742;28;1568;-77
2023/11/02 00:53:53;;;;;;;;;;;;;;;20.94;29.25;97760.44;4941231;29;1719;-78
2023/11/02 00:56:19;;;;;;;;;;;;;;;20.92;28.99;97763.72;4909852;29;1439;-77
2023/11/02 00:58:46;;;;;;;;;;;;;;;20.98;28.91;97763.94;4918124;29;1471;-78
2023/11/02 01:01:12;;;;;;;;;;;;;;;21.04;29.20;97759.38;4909550;29;1444;-77
2023/11/02 01:03:38;;;;;;;;;;;;;;;21.16;28.73;97752.94;4893800;29;1972;-78
2023/11/02 01:06:04;;;;;;;;;;;;;;;20.99;29.20;97755.03;4919441;29;1243;-78
2023/11/02 01:08:30;;;;;;;;;;;;;;;21.06;28.91;97754.03;4904387;29;1408;-78
2023/11/02 01:10:55;;;;;;;;;;;;;;;20.97;28.89;97751.06;4909595;29;1718;-78
2023/11/02 01:13:21;;;;;;;;;;;;;;;21.06;28.87;97754.03;4907372;29;1437;-78
2023/11/02 01:15:57;;;;;;;;;;;;;;;21.03;28.89;97741.56;4894781;29;1534;-78
2023/11/02 01:18:22;;;;;;;;;;;;;;;21.10;28.91;97743.41;4913106;29;1421;-78
2023/11/02 01:20:48;;;;;;;;;;;;;;;21.00;29.08;97750.19;4914576;29;1423;-77
2023/11/02 01:23:16;;;;;;;;;;;;;;;21.08;28.84;97751.53;4906057;29;1539;-78
2023/11/02 01:25:42;;;;;;;;;;;;;;;20.95;29.25;97753.56;4920026;29;1725;-78
2023/11/02 01:28:08;;;;;;;;;;;;;;;21.14;28.48;97746.94;4904554;29;1433;-78
2023/11/02 01:30:37;;;;;;;;;;;;;;;21.03;28.76;97740.78;4931983;29;1479;-78
2023/11/02 01:33:04;;;;;;;;;;;;;;;20.85;29.34;97732.00;4975939;28;1406;-77
2023/11/02 01:35:35;;;;;;;;;;;;;;;20.92;28.89;97737.47;4945499;28;1440;-78
2023/11/02 01:38:01;;;;;;;;;;;;;;;20.98;28.97;97735.66;4951663;28;1509;-78
2023/11/02 01:40:30;;;;;;;;;;;;;;;21.01;28.88;97737.63;4977749;28;1348;-78
2023/11/02 01:42:56;;;;;;;;;;;;;;;21.02;28.79;97742.03;4959188;28;1423;-78
2023/11/02 01:45:24;;;;;;;;;;;;;;;20.96;28.91;97736.13;4945770;28;1983;-78
2023/11/02 01:48:01;;;;;;;;;;;;;;;21.01;28.99;97734.78;4960976;28;1499;-78
2023/11/02 01:50:50;;;;;;;;;;;;;;;20.96;28.78;97729.69;4961348;28;1439;-78
2023/11/02 01:53:31;;;;;;;;;;;;;;;21.07;28.59;97730.94;4908144;29;1593;-78
2023/11/02 01:56:12;;;;;;;;;;;;;;;20.94;28.99;97732.16;4902884;29;1472;-78
2023/11/02 01:58:37;;;;;;;;;;;;;;;20.75;29.40;97726.19;4881517;29;1555;-78
2023/11/02 02:01:12;;;;;;;;;;;;;;;20.94;29.27;97723.69;4896370;29;1473;-78
2023/11/02 02:03:43;;;;;;;;;;;;;;;20.86;29.03;97710.97;4902365;29;1982;-78
2023/11/02 02:06:10;;;;;;;;;;;;;;;20.84;29.37;97724.78;4882335;29;1609;-78
2023/11/02 02:08:47;;;;;;;;;;;;;;;20.69;29.45;97713.84;4882626;29;1540;-78
2023/11/02 02:11:27;;;;;;;;;;;;;;;21.01;29.03;97720.66;4886818;29;1512;-78
2023/11/02 02:14:00;;;;;;;;;;;;;;;21.14;28.84;97710.16;4886309;29;1397;-78
2023/11/02 02:16:36;;;;;;;;;;;;;;;21.06;28.90;97720.09;4903330;29;1460;-78
2023/11/02 02:19:15;;;;;;;;;;;;;;;21.14;28.95;97713.00;4900951;29;1649;-78
2023/11/02 02:21:44;;;;;;;;;;;;;;;21.00;29.29;97717.03;4888476;29;1404;-78
2023/11/02 02:24:11;;;;;;;;;;;;;;;21.11;28.92;97711.06;4897319;29;1898;-77
2023/11/02 02:26:49;;;;;;;;;;;;;;;20.98;29.10;97713.03;4893656;29;1610;-78
2023/11/02 02:29:23;;;;;;;;;;;;;;;21.04;29.01;97706.41;4871830;29;1615;-77
2023/11/02 02:31:51;;;;;;;;;;;;;;;21.05;29.22;97708.00;4941446;29;1384;-77
2023/11/02 02:34:35;;;;;;;;;;;;;;;20.79;29.42;97701.47;4957398;29;1414;-78
2023/11/02 02:37:07;;;;;;;;;;;;;;;20.92;29.61;97706.34;4957054;29;1352;-78
2023/11/02 02:39:34;;;;;;;;;;;;;;;21.02;29.06;97703.22;4932053;29;1384;-78
2023/11/02 02:42:00;;;;;;;;;;;;;;;20.94;29.30;97706.72;4941408;29;1395;-78
2023/11/02 02:44:27;;;;;;;;;;;;;;;20.90;29.35;97712.47;4941292;29;1985;-78
2023/11/02 02:46:52;;;;;;;;;;;;;;;20.91;29.35;97714.03;4940992;29;1693;-78
2023/11/02 02:49:18;;;;;;;;;;;;;;;20.84;29.55;97704.97;4941252;29;1455;-77
2023/11/02 02:51:44;;;;;;;;;;;;;;;20.87;29.71;97699.22;4941190;29;1439;-78
2023/11/02 02:54:10;;;;;;;;;;;;;;;21.16;29.10;97707.69;4924902;29;1572;-78
2023/11/02 02:56:36;;;;;;;;;;;;;;;21.38;28.80;97698.56;4943182;28;1482;-78
2023/11/02 02:59:03;;;;;;;;;;;;;;;21.08;29.29;97700.63;4942264;28;1504;-77
2023/11/02 03:01:29;;;;;;;;;;;;;;;20.91;29.63;97690.63;4974774;28;1426;-78
2023/11/02 03:03:55;;;;;;;;;;;;;;;20.96;29.44;97693.69;4977258;28;1981;-78
2023/11/02 03:06:20;;;;;;;;;;;;;;;20.98;29.22;97696.06;4961757;28;1526;-78
2023/11/02 03:08:46;;;;;;;;;;;;;;;20.95;29.57;97683.63;4945018;28;1569;-78
2023/11/02 03:11:11;;;;;;;;;;;;;;;20.85;29.66;97675.47;4945184;28;1408;-78
2023/11/02 03:13:38;;;;;;;;;;;;;;;20.93;29.70;97676.81;4976774;28;1462;-77
2023/11/02 03:16:04;;;;;;;;;;;;;;;21.18;29.28;97662.75;4977342;28;1427;-78
2023/11/02 03:18:31;;;;;;;;;;;;;;;21.06;29.22;97674.84;4940595;29;1451;-77
2023/11/02 03:20:57;;;;;;;;;;;;;;;20.91;29.60;97659.53;4940375;29;1636;-78
2023/11/02 03:23:22;;;;;;;;;;;;;;;21.02;29.50;97660.00;4940093;29;2020;-78
2023/11/02 03:26:08;;;;;;;;;;;;;;;21.13;29.06;97654.81;4940340;29;1435;-78
2023/11/02 03:28:44;;;;;;;;;;;;;;;21.09;29.01;97645.66;4939591;29;1428;-78
2023/11/02 03:31:30;;;;;;;;;;;;;;;21.11;29.36;97646.00;4940469;29;1621;-78
2023/11/02 03:33:58;;;;;;;;;;;;;;;21.24;29.13;97641.16;4917401;29;1448;-78
2023/11/02 03:36:28;;;;;;;;;;;;;;;21.36;28.89;97642.44;4902694;29;1527;-78
2023/11/02 03:38:53;;;;;;;;;;;;;;;21.10;29.13;97641.56;4902076;29;1413;-78
2023/11/02 03:41:19;;;;;;;;;;;;;;;21.20;29.16;97640.47;4902576;29;1592;-78
2023/11/02 03:43:50;;;;;;;;;;;;;;;21.09;29.48;97640.00;4917944;29;1907;-78
2023/11/02 03:46:19;;;;;;;;;;;;;;;20.95;29.79;97640.41;4917765;29;1593;-77
2023/11/02 03:48:45;;;;;;;;;;;;;;;20.75;29.80;97627.25;4905587;29;1425;-78
2023/11/02 03:51:17;;;;;;;;;;;;;;;20.79;29.75;97633.59;4956237;29;1422;-77
2023/11/02 03:53:45;;;;;;;;;;;;;;;20.95;29.45;97629.09;4923961;29;1416;-79
2023/11/02 03:56:29;;;;;;;;;;;;;;;21.13;29.09;97620.84;4956215;29;1387;-78
2023/11/02 03:59:21;;;;;;;;;;;;;;;21.03;29.58;97630.47;4955285;29;1495;-78
2023/11/02 04:01:49;;;;;;;;;;;;;;;20.97;29.62;97638.72;4880370;29;1413;-77
2023/11/02 04:04:17;;;;;;;;;;;;;;;20.85;29.78;97635.88;4880000;29;1915;-77
2023/11/02 04:06:47;;;;;;;;;;;;;;;21.05;29.49;97650.63;4865328;29;1367;-78
2023/11/02 04:09:14;;;;;;;;;;;;;;;21.06;29.50;97646.53;4877742;29;1453;-77
2023/11/02 04:11:41;;;;;;;;;;;;;;;20.90;29.60;97638.16;4844446;29;1426;-77
2023/11/02 04:14:09;;;;;;;;;;;;;;;21.10;29.39;97630.25;4843057;29;1431;-77
2023/11/02 04:16:35;;;;;;;;;;;;;;;21.17;29.41;97627.19;4860166;29;1563;-78
2023/11/02 04:19:02;;;;;;;;;;;;;;;21.07;29.18;97631.16;4844132;29;1471;-78
2023/11/02 04:21:27;;;;;;;;;;;;;;;21.07;29.62;97631.94;4843019;29;1498;-77
2023/11/02 04:23:53;;;;;;;;;;;;;;;21.21;29.35;97622.22;4842930;29;1976;-78
2023/11/02 04:26:18;;;;;;;;;;;;;;;21.11;29.14;97631.06;4842917;29;1482;-78
2023/11/02 04:28:44;;;;;;;;;;;;;;;21.00;29.36;97637.03;4842654;29;1415;-78
2023/11/02 04:31:09;;;;;;;;;;;;;;;21.32;28.90;97630.41;4830781;29;1431;-77
2023/11/02 04:33:35;;;;;;;;;;;;;;;21.02;29.29;97640.97;4845944;29;1616;-78
2023/11/02 04:36:00;;;;;;;;;;;;;;;20.97;29.48;97640.75;4861332;29;1481;-78
2023/11/02 04:38:26;;;;;;;;;;;;;;;21.00;29.57;97645.53;4864066;29;1376;-78
2023/11/02 04:40:52;;;;;;;;;;;;;;;21.32;29.03;97639.69;4917355;29;1840;-77
2023/11/02 04:43:18;;;;;;;;;;;;;;;21.01;29.40;97644.28;4958670;28;1487;-78
2023/11/02 04:45:44;;;;;;;;;;;;;;;20.91;29.82;97639.72;4956764;29;1968;-77
2023/11/02 04:48:09;;;;;;;;;;;;;;;21.25;29.08;97620.09;4975092;28;1363;-77
2023/11/02 04:50:35;;;;;;;;;;;;;;;21.25;29.01;97637.06;4977083;28;1369;-77
2023/11/02 04:53:01;;;;;;;;;;;;;;;21.30;29.05;97639.38;4975929;28;1644;-78
2023/11/02 04:55:26;;;;;;;;;;;;;;;21.17;29.04;97646.22;4975952;28;1669;-78
2023/11/02 04:57:52;;;;;;;;;;;;;;;21.03;29.23;97653.09;4976974;28;1630;-77
2023/11/02 05:00:18;;;;;;;;;;;;;;;20.97;29.59;97650.03;4976912;28;1663;-78
2023/11/02 05:02:43;;;;;;;;;;;;;;;21.04;29.63;97654.69;4959892;28;1509;-78
2023/11/02 05:05:09;;;;;;;;;;;;;;;21.15;29.38;97660.81;4975879;28;1985;-78
2023/11/02 05:07:34;;;;;;;;;;;;;;;21.14;29.35;97658.41;4976134;28;1000;-78
2023/11/02 05:10:00;;;;;;;;;;;;;;;20.84;29.68;97652.03;4960363;28;997;-77
2023/11/02 05:12:25;;;;;;;;;;;;;;;20.98;29.55;97662.13;4977311;28;851;-78
2023/11/02 05:14:51;;;;;;;;;;;;;;;21.21;29.27;97664.69;4959574;28;932;-78
2023/11/02 05:17:17;;;;;;;;;;;;;;;21.25;29.18;97656.88;4976275;28;1014;-77
2023/11/02 05:19:42;;;;;;;;;;;;;;;21.18;29.16;97659.91;4976087;28;1171;-77
2023/11/02 05:22:08;;;;;;;;;;;;;;;20.96;29.56;97647.66;4975900;28;833;-79
2023/11/02 05:24:33;;;;;;;;;;;;;;;20.92;29.50;97644.13;4979813;28;1910;-79
2023/11/02 05:26:59;;;;;;;;;;;;;;;21.06;29.40;97647.34;4979427;28;854;-78
2023/11/02 05:29:25;;;;;;;;;;;;;;;21.07;29.39;97648.91;4979122;28;1199;-79
2023/11/02 05:31:51;;;;;;;;;;;;;;;21.18;29.10;97631.63;4979129;28;862;-78
2023/11/02 05:34:16;;;;;;;;;;;;;;;21.30;29.22;97622.38;4980005;28;822;-78
2023/11/02 05:36:42;;;;;;;;;;;;;;;21.27;29.39;97611.94;4980480;28;896;-78
2023/11/02 05:39:08;;;;;;;;;;;;;;;21.25;29.45;97591.00;4980557;28;925;-78
2023/11/02 05:41:33;;;;;;;;;;;;;;;21.00;29.51;97586.13;4979986;28;1065;-78
2023/11/02 05:43:59;;;;;;;;;;;;;;;21.13;29.35;97606.72;4979719;28;1981;-78
2023/11/02 05:46:24;;;;;;;;;;;;;;;21.21;29.41;97602.44;4980703;28;914;-78
2023/11/02 05:48:50;;;;;;;;;;;;;;;21.00;29.75;97603.88;4979124;28;1047;-78
2023/11/02 05:51:15;;;;;;;;;;;;;;;21.18;29.35;97605.34;4980052;28;779;-79
2023/11/02 05:53:41;;;;;;;;;;;;;;;21.00;29.83;97620.06;4978909;28;1098;-78
2023/11/02 05:56:06;;;;;;;;;;;;;;;21.17;29.64;97617.94;4979297;28;1170;-78
2023/11/02 05:58:32;;;;;;;;;;;;;;;21.21;29.71;97604.47;4926288;29;1401;-77
2023/11/02 06:00:57;;;;;;;;;;;;;;;21.44;29.26;97614.69;4943797;29;910;-77
2023/11/02 06:03:24;;;;;;;;;;;;;;;21.42;29.41;97612.31;4904249;29;1324;-78
2023/11/02 06:05:50;;;;;;;;;;;;;;;21.23;29.45;97599.94;4904751;29;1911;-78
2023/11/02 06:08:15;;;;;;;;;;;;;;;21.27;29.40;97589.28;4904679;29;992;-77
2023/11/02 06:10:41;;;;;;;;;;;;;;;21.12;30.17;97591.00;4920241;29;882;-79
2023/11/02 06:13:06;;;;;;;;;;;;;;;21.19;29.78;97599.28;4919824;29;944;-78
2023/11/02 06:15:32;;;;;;;;;;;;;;;21.15;29.83;97604.25;4904091;29;1044;-78
2023/11/02 06:17:57;;;;;;;;;;;;;;;21.20;29.63;97600.84;4920174;29;927;-78
2023/11/02 06:20:23;;;;;;;;;;;;;;;21.20;29.97;97617.81;4920289;29;965;-79
2023/11/02 06:22:48;;;;;;;;;;;;;;;21.37;29.58;97620.56;4919997;29;964;-78
2023/11/02 06:25:14;;;;;;;;;;;;;;;21.33;29.99;97629.16;4919938;29;1964;-78
2023/11/02 06:27:40;;;;;;;;;;;;;;;21.12;30.06;97641.91;4919932;29;924;-78
2023/11/02 06:30:06;;;;;;;;;;;;;;;21.37;29.84;97626.22;4919745;29;1038;-79
2023/11/02 06:32:31;;;;;;;;;;;;;;;21.16;30.19;97648.25;4920229;29;978;-78
2023/11/02 06:34:57;;;;;;;;;;;;;;;21.24;29.87;97652.47;4949324;28;987;-79
2023/11/02 06:37:22;;;;;;;;;;;;;;;21.27;30.09;97657.22;4911460;29;1582;-79
2023/11/02 06:39:51;;;;;;;;;;;;;;;21.30;29.96;97645.03;4943162;29;1201;-78
2023/11/02 06:42:16;;;;;;;;;;;;;;;21.32;29.87;97647.41;4942761;29;1003;-79
2023/11/02 06:44:43;;;;;;;;;;;;;;;21.29;29.71;97649.06;4927040;29;1903;-79
2023/11/02 06:47:10;;;;;;;;;;;;;;;21.07;30.16;97653.78;4927348;29;847;-78
2023/11/02 06:49:35;;;;;;;;;;;;;;;21.21;29.98;97659.00;4942761;29;995;-78
2023/11/02 06:52:02;;;;;;;;;;;;;;;21.28;29.97;97644.63;4942889;29;934;-79
2023/11/02 06:54:28;;;;;;;;;;;;;;;21.06;30.01;97621.09;4911106;29;1325;-78
2023/11/02 06:56:53;;;;;;;;;;;;;;;20.99;30.02;97610.00;4926650;29;1115;-78
2023/11/02 06:59:19;;;;;;;;;;;;;;;21.25;29.89;97603.13;4942579;29;953;-79
2023/11/02 07:01:44;;;;;;;;;;;;;;;21.13;29.84;97617.25;4942631;29;1170;-78
2023/11/02 07:04:10;;;;;;;;;;;;;;;21.22;29.70;97612.50;4926686;29;1910;-78
2023/11/02 07:06:36;;;;;;;;;;;;;;;21.19;29.88;97616.25;4942299;29;1084;-78
2023/11/02 07:09:01;;;;;;;;;;;;;;;21.00;30.08;97615.19;4959201;29;891;-77
2023/11/02 07:11:27;;;;;;;;;;;;;;;21.13;29.99;97606.72;4942240;29;929;-78
2023/11/02 07:13:52;;;;;;;;;;;;;;;21.20;29.87;97606.50;4942257;29;904;-79
2023/11/02 07:16:18;;;;;;;;;;;;;;;21.38;29.46;97593.84;4959414;29;1183;-77
2023/11/02 07:18:44;;;;;;;;;;;;;;;21.21;29.88;97590.31;4959020;29;901;-77
2023/11/02 07:21:09;;;;;;;;;;;;;;;21.09;29.82;97594.72;4942217;29;1051;-77
2023/11/02 07:23:36;;;;;;;;;;;;;;;21.16;29.71;97602.19;4958893;29;1986;-77
2023/11/02 07:26:02;;;;;;;;;;;;;;;21.31;29.93;97606.19;4926341;29;1460;-77
2023/11/02 07:28:27;;;;;;;;;;;;;;;21.33;29.86;97624.28;4958640;29;1095;-76
2023/11/02 07:30:53;;;;;;;;;;;;;;;21.16;30.04;97622.00;4905901;29;1205;-77
2023/11/02 07:33:18;;;;;;;;;;;;;;;21.35;29.55;97611.72;4906061;29;1153;-77
2023/11/02 07:35:44;;;;;;;;;;;;;;;21.16;30.18;97591.69;4937645;29;1077;-77
2023/11/02 07:38:10;;;;;;;;;;;;;;;21.15;30.19;97592.94;4937415;29;969;-77
2023/11/02 07:40:35;;;;;;;;;;;;;;;21.36;29.83;97590.69;4905786;29;973;-77
2023/11/02 07:43:01;;;;;;;;;;;;;;;21.18;29.82;97594.84;4937121;29;930;-77
2023/11/02 07:45:27;;;;;;;;;;;;;;;21.18;29.91;97591.22;4937043;29;1980;-76
2023/11/02 07:47:52;;;;;;;;;;;;;;;21.28;29.70;97590.88;4905601;29;1060;-76
2023/11/02 07:50:19;;;;;;;;;;;;;;;21.27;29.87;97588.50;4905523;29;931;-76
2023/11/02 07:52:44;;;;;;;;;;;;;;;21.20;30.09;97588.75;4905796;29;1200;-77
2023/11/02 07:55:10;;;;;;;;;;;;;;;21.23;29.86;97587.81;4883547;29;1181;-77
2023/11/02 07:57:35;;;;;;;;;;;;;;;21.10;30.08;97585.00;4884071;29;956;-77
2023/11/02 08:00:02;;;;;;;;;;;;;;;21.40;29.56;97585.69;4883420;29;963;-77
2023/11/02 08:02:37;;;;;;;;;;;;;;;21.12;30.18;97585.34;4884855;29;940;-76
2023/11/02 08:05:03;;;;;;;;;;;;;;;21.17;29.85;97567.78;4883586;29;1907;-77
2023/11/02 08:07:30;;;;;;;;;;;;;;;21.18;29.85;97572.19;4883200;29;1032;-77
2023/11/02 08:09:56;;;;;;;;;;;;;;;21.24;30.01;97566.75;4883842;29;1014;-77
2023/11/02 08:12:21;;;;;;;;;;;;;;;21.09;30.09;97574.94;4883059;29;1123;-77
2023/11/02 08:14:47;;;;;;;;;;;;;;;21.17;30.18;97578.31;4898952;29;890;-77
2023/11/02 08:17:17;;;;;;;;;;;;;;;21.38;29.74;97571.22;4898969;29;965;-77
2023/11/02 08:19:44;;;;;;;;;;;;;;;20.88;30.27;97527.50;4861057;29;941;-77
2023/11/02 08:22:10;;;;;;;;;;;;;;;21.38;29.82;97563.50;4861608;29;1109;-76
2023/11/02 08:24:37;;;;;;;;;;;;;;;21.31;30.00;97549.59;4845723;29;1903;-77
2023/11/02 08:27:04;;;;;;;;;;;;;;;21.28;30.24;97539.94;4878408;29;965;-77
2023/11/02 08:29:29;;;;;;;;;;;;;;;21.30;30.20;97540.31;4883277;29;1181;-76
2023/11/02 08:31:55;;;;;;;;;;;;;;;21.17;30.05;97539.50;4864057;29;1156;-77
2023/11/02 08:34:22;;;;;;;;;;;;;;;21.36;30.18;97539.75;4827708;29;1335;-77
2023/11/02 08:36:47;;;;;;;;;;;;;;;21.22;30.21;97535.31;4828091;29;1004;-76
2023/11/02 08:39:13;;;;;;;;;;;;;;;21.38;29.91;97534.41;4842920;29;1092;-76
2023/11/02 08:41:38;;;;;;;;;;;;;;;21.59;29.79;97530.88;4812859;29;961;-76
2023/11/02 08:44:04;;;;;;;;;;;;;;;21.22;30.37;97530.44;4827618;29;1916;-77
2023/11/02 08:46:31;;;;;;;;;;;;;;;21.19;30.25;97534.19;4842801;29;1006;-77
2023/11/02 08:48:56;;;;;;;;;;;;;;;21.53;29.84;97529.88;4842750;29;932;-77
2023/11/02 08:51:22;;;;;;;;;;;;;;;21.24;30.14;97533.63;4871657;29;1057;-77
2023/11/02 08:53:48;;;;;;;;;;;;;;;21.05;30.89;97526.16;4848816;29;1123;-77
2023/11/02 08:56:13;;;;;;;;;;;;;;;21.10;30.68;97522.75;4879668;29;1258;-76
2023/11/02 08:58:49;;;;;;;;;;;;;;;21.19;30.53;97528.53;4882757;29;980;-77
2023/11/02 09:01:24;;;;;;;;;;;;;;;21.39;30.23;97516.19;4883774;29;975;-77
2023/11/02 09:03:53;;;;;;;;;;;;;;;21.49;30.00;97517.88;4915926;29;1904;-76
2023/11/02 09:06:19;;;;;;;;;;;;;;;21.81;29.50;97519.59;4905477;29;1062;-77
2023/11/02 09:08:45;;;;;;;;;;;;;;;21.62;29.70;97515.81;4905046;29;1010;-77
2023/11/02 09:11:10;;;;;;;;;;;;;;;21.60;29.86;97521.13;4914919;29;952;-77
2023/11/02 09:13:36;;;;;;;;;;;;;;;21.72;29.72;97506.16;4961233;29;851;-77
2023/11/02 09:16:01;;;;;;;;;;;;;;;21.57;29.79;97507.91;4961200;29;936;-77
2023/11/02 09:18:27;;;;;;;;;;;;;;;21.52;29.88;97508.47;4927520;29;941;-77
2023/11/02 09:20:52;;;;;;;;;;;;;;;21.55;30.01;97507.53;4943526;29;978;-77
2023/11/02 09:23:18;;;;;;;;;;;;;;;21.66;29.81;97501.50;4927125;29;994;-77
2023/11/02 09:25:44;;;;;;;;;;;;;;;21.54;29.97;97500.31;4960725;29;2008;-77
2023/11/02 09:28:09;;;;;;;;;;;;;;;21.26;30.60;97494.34;4960609;29;1045;-77
2023/11/02 09:30:35;;;;;;;;;;;;;;;21.37;30.19;97485.53;4904002;29;941;-78
2023/11/02 09:33:00;;;;;;;;;;;;;;;21.46;30.26;97487.66;4904417;29;993;-77
2023/11/02 09:35:27;;;;;;;;;;;;;;;21.41;30.38;97482.56;4901140;29;983;-78
2023/11/02 09:37:53;;;;;;;;;;;;;;;21.42;30.15;97482.13;4901307;29;1027;-78
2023/11/02 09:40:18;;;;;;;;;;;;;;;21.35;30.49;97464.56;4901294;29;1003;-78
2023/11/02 09:42:45;;;;;;;;;;;;;;;21.44;30.02;97462.63;4869747;29;971;-78
2023/11/02 09:45:11;;;;;;;;;;;;;;;21.63;30.13;97452.28;4901072;29;1978;-78
2023/11/02 09:47:38;;;;;;;;;;;;;;;21.56;29.97;97458.97;4901148;29;963;-78
2023/11/02 09:50:04;;;;;;;;;;;;;;;21.74;29.73;97447.00;4900960;29;916;-78
2023/11/02 09:52:30;;;;;;;;;;;;;;;21.62;29.78;97438.59;4885697;29;933;-78
2023/11/02 09:54:56;;;;;;;;;;;;;;;21.44;30.02;97428.66;4891588;29;1167;-78
2023/11/02 09:57:21;;;;;;;;;;;;;;;21.33;30.43;97423.38;4920015;29;994;-78
2023/11/02 09:59:47;;;;;;;;;;;;;;;21.59;30.00;97417.63;4919598;29;939;-78
2023/11/02 10:02:12;;;;;;;;;;;;;;;21.47;29.97;97418.47;4934490;29;1033;-78
2023/11/02 10:04:38;;;;;;;;;;;;;;;21.23;30.68;97409.56;4938615;29;1907;-77
2023/11/02 10:07:05;;;;;;;;;;;;;;;21.39;30.44;97408.66;4891613;29;916;-78
2023/11/02 10:09:31;;;;;;;;;;;;;;;21.44;30.35;97416.56;4922684;29;957;-77
2023/11/02 10:11:56;;;;;;;;;;;;;;;21.31;30.69;97420.22;4925563;29;1022;-78
2023/11/02 10:14:22;;;;;;;;;;;;;;;21.40;30.22;97419.53;4959868;28;899;-78
2023/11/02 10:16:47;;;;;;;;;;;;;;;21.58;30.21;97416.84;4970473;28;2342;-78
2023/11/02 10:19:13;;;;;;;;;;;;;;;21.57;30.20;97420.13;4978365;28;1022;-78
2023/11/02 10:21:39;;;;;;;;;;;;;;;21.40;30.48;97421.53;4979412;28;868;-78
2023/11/02 10:24:05;;;;;;;;;;;;;;;21.16;30.82;97407.78;4979481;28;1910;-78
2023/11/02 10:26:34;;;;;;;;;;;;;;;21.25;30.57;97409.91;4978434;28;957;-78
2023/11/02 10:29:01;;;;;;;;;;;;;;;21.50;30.01;97421.19;4962305;28;911;-78
2023/11/02 10:31:30;;;;;;;;;;;;;;;21.28;30.61;97426.75;4945342;28;1326;-78
2023/11/02 10:33:59;;;;;;;;;;;;;;;21.16;30.95;97429.63;4962436;28;1068;-78
2023/11/02 10:36:25;;;;;;;;;;;;;;;21.61;29.86;97437.78;4978096;28;912;-78
2023/11/02 10:38:51;;;;;;;;;;;;;;;21.31;30.53;97431.53;4978965;28;969;-78
2023/11/02 10:41:17;;;;;;;;;;;;;;;21.42;30.30;97430.38;4961752;28;1137;-77
2023/11/02 10:43:46;;;;;;;;;;;;;;;21.48;30.20;97422.88;4961683;28;1918;-78
2023/11/02 10:46:12;;;;;;;;;;;;;;;21.65;29.64;97418.63;4977351;28;1024;-78
2023/11/02 10:48:40;;;;;;;;;;;;;;;21.68;29.82;97420.53;4921921;29;1023;-78
2023/11/02 10:51:07;;;;;;;;;;;;;;;21.66;29.72;97427.91;4937575;29;827;-77
2023/11/02 10:53:44;;;;;;;;;;;;;;;21.76;29.72;97427.53;4921834;29;949;-77
2023/11/02 10:56:14;;;;;;;;;;;;;;;21.46;30.02;97428.22;4922000;29;1261;-78
2023/11/02 10:58:40;;;;;;;;;;;;;;;21.62;30.15;97432.91;4921661;29;927;-78
2023/11/02 11:01:05;;;;;;;;;;;;;;;21.43;30.33;97420.63;4938025;29;981;-77
2023/11/02 11:03:31;;;;;;;;;;;;;;;21.53;30.29;97416.63;4937400;29;1204;-78
2023/11/02 11:05:56;;;;;;;;;;;;;;;21.31;30.50;97408.91;4922160;29;2028;-78
2023/11/02 11:08:23;;;;;;;;;;;;;;;21.47;30.38;97405.13;4921920;29;988;-78
2023/11/02 11:10:48;;;;;;;;;;;;;;;21.33;30.25;97417.72;4921948;29;1048;-78
2023/11/02 11:13:14;;;;;;;;;;;;;;;21.21;30.56;97410.03;4921302;29;1169;-78
2023/11/02 11:15:40;;;;;;;;;;;;;;;21.53;30.19;97419.47;4902459;29;899;-78
2023/11/02 11:18:06;;;;;;;;;;;;;;;21.46;30.27;97409.19;4902898;29;814;-78
2023/11/02 11:20:31;;;;;;;;;;;;;;;21.47;30.22;97405.13;4934878;29;943;-78
2023/11/02 11:22:57;;;;;;;;;;;;;;;21.53;30.06;97413.81;4956117;29;921;-78
2023/11/02 11:25:22;;;;;;;;;;;;;;;21.33;30.44;97417.72;4940556;29;1907;-78
2023/11/02 11:27:48;;;;;;;;;;;;;;;21.52;30.22;97398.06;4924249;29;894;-78
2023/11/02 11:30:19;;;;;;;;;;;;;;;21.41;30.50;97401.28;4956404;29;903;-78
2023/11/02 11:32:45;;;;;;;;;;;;;;;21.36;30.65;97389.78;4955965;29;838;-78
2023/11/02 11:35:12;;;;;;;;;;;;;;;21.60;30.14;97390.88;4940159;29;838;-78
2023/11/02 11:37:45;;;;;;;;;;;;;;;21.33;30.33;97386.59;4956105;29;909;-78
2023/11/02 11:40:19;;;;;;;;;;;;;;;21.49;30.27;97376.34;4940548;29;796;-77
2023/11/02 11:43:05;;;;;;;;;;;;;;;21.49;30.32;97374.28;4956290;29;776;-77
2023/11/02 11:45:30;;;;;;;;;;;;;;;21.52;30.15;97372.59;4956430;28;1973;-77
2023/11/02 11:47:59;;;;;;;;;;;;;;;21.68;29.88;97361.09;4977231;28;732;-76
2023/11/02 11:50:31;;;;;;;;;;;;;;;21.53;30.15;97357.97;4977331;28;1047;-77
2023/11/02 11:53:09;;;;;;;;;;;;;;;21.70;29.88;97361.41;4976541;28;935;-77
2023/11/02 11:55:35;;;;;;;;;;;;;;;21.78;29.79;97345.72;4977373;28;1066;-78
2023/11/02 11:58:02;;;;;;;;;;;;;;;21.61;30.10;97350.03;4960579;28;959;-77
2023/11/02 12:00:27;;;;;;;;;;;;;;;21.81;29.78;97332.69;4960236;28;909;-77
2023/11/02 12:02:57;;;;;;;;;;;;;;;21.66;29.79;97326.78;4960289;28;912;-78
2023/11/02 12:05:55;;;;;;;;;;;;;;;21.64;30.04;97323.63;4960570;28;1974;-79
2023/11/02 12:08:22;;;;;;;;;;;;;;;21.31;30.68;97329.66;4898617;29;1032;-78
2023/11/02 12:10:52;;;;;;;;;;;;;;;21.57;30.00;97321.06;4898616;29;901;-78
2023/11/02 12:13:18;;;;;;;;;;;;;;;21.51;30.43;97331.41;4883263;29;1016;-78
2023/11/02 12:15:50;;;;;;;;;;;;;;;21.48;30.44;97335.13;4882871;29;973;-78
2023/11/02 12:18:16;;;;;;;;;;;;;;;21.54;30.28;97336.13;4867437;29;1060;-78
2023/11/02 12:20:44;;;;;;;;;;;;;;;21.58;30.30;97331.91;4867449;29;979;-79
2023/11/02 12:23:12;;;;;;;;;;;;;;;21.65;29.86;97336.50;4867876;29;922;-78
2023/11/02 12:25:38;;;;;;;;;;;;;;;21.61;30.05;97335.88;4883442;29;1918;-79
2023/11/02 12:28:06;;;;;;;;;;;;;;;22.07;30.29;97333.28;5239600;23;3847;-76
2023/11/02 12:30:32;;;;;;;;;;;;;;;22.49;30.06;97335.75;4945263;28;1064;-77
2023/11/02 12:32:58;;;;;;;;;;;;;;;22.18;30.55;97339.38;4958262;28;1356;-77
2023/11/02 12:35:24;;;;;;;;;;;;;;;21.60;30.98;97328.63;4960732;29;921;-78
2023/11/02 12:38:00;;;;;;;;;;;;;;;21.27;31.51;97326.16;4944217;29;1265;-76
2023/11/02 12:40:26;;;;;;;;;;;;;;;21.35;31.19;97328.75;4928560;29;981;-77
2023/11/02 12:42:53;;;;;;;;;;;;;;;21.36;30.82;97331.13;4960439;29;947;-77
2023/11/02 12:45:24;;;;;;;;;;;;;;;21.49;30.58;97333.88;4906186;29;1986;-77
2023/11/02 12:47:50;;;;;;;;;;;;;;;20.95;30.99;97329.31;4905864;29;982;-77
2023/11/02 12:50:28;;;;;;;;;;;;;;;21.01;31.08;97339.59;4922377;29;914;-77
2023/11/02 12:52:53;;;;;;;;;;;;;;;21.11;30.64;97337.63;4906154;29;1221;-77
2023/11/02 12:55:22;;;;;;;;;;;;;;;21.21;29.95;97336.47;4921799;29;1672;-77
2023/11/02 12:57:47;;;;;;;;;;;;;;;21.13;30.22;97346.44;4921815;29;1169;-77
2023/11/02 13:00:18;;;;;;;;;;;;;;;20.98;30.36;97345.34;4921843;29;1090;-77
2023/11/02 13:05:35;;;;;;;;;;;;;;;22.02;30.14;97343.22;4978718;28;1886;-77